createdAt,value
2023-04-10T00:01:35.633Z,101639.52
2023-04-10T00:04:08.318Z,101637.05
2023-04-10T00:06:41.757Z,101633.85
2023-04-10T00:09:14.444Z,101628.41
2023-04-10T00:11:46.785Z,101629.17
2023-04-10T00:14:23.225Z,101631.48
2023-04-10T00:16:55.617Z,101634.20
2023-04-10T00:19:28.242Z,101636.14
2023-04-10T00:22:00.684Z,101634.88
2023-04-10T00:24:32.862Z,101628.36
2023-04-10T00:27:05.699Z,101615.73
2023-04-10T00:29:38.180Z,101629.30
2023-04-10T00:32:10.822Z,101624.69
2023-04-10T00:34:43.112Z,101621.45
2023-04-10T00:37:15.286Z,101621.89
2023-04-10T00:39:47.880Z,101617.95
2023-04-10T00:42:20.142Z,101617.35
2023-04-10T00:44:52.819Z,101618.36
2023-04-10T00:47:25.338Z,101616.83
2023-04-10T00:49:58.163Z,101615.77
2023-04-10T00:52:31.167Z,101604.91
2023-04-10T00:55:04.007Z,101612.60
2023-04-10T00:57:37.012Z,101616.04
2023-04-10T01:00:11.695Z,101617.41
2023-04-10T01:02:44.250Z,101620.78
2023-04-10T01:05:17.508Z,101625.99
2023-04-10T01:08:13.792Z,101623.55
2023-04-10T01:10:53.124Z,101620.47
2023-04-10T01:13:33.045Z,101621.85
2023-04-10T01:16:10.813Z,101611.98
2023-04-10T01:18:49.909Z,101625.59
2023-04-10T01:21:24.613Z,101626.80
2023-04-10T01:24:17.224Z,101632.14
2023-04-10T01:27:11.058Z,101631.87
2023-04-10T01:29:47.713Z,101631.35
2023-04-10T01:32:23.888Z,101632.77
2023-04-10T01:34:58.475Z,101634.28
2023-04-10T01:37:33.681Z,101631.52
2023-04-10T01:40:10.494Z,101634.58
2023-04-10T01:42:47.574Z,101635.20
2023-04-10T01:45:22.260Z,101625.46
2023-04-10T01:47:57.292Z,101633.11
2023-04-10T01:50:31.314Z,101631.10
2023-04-10T01:53:06.460Z,101629.16
2023-04-10T01:55:40.129Z,101632.73
2023-04-10T01:58:12.739Z,101628.14
2023-04-10T02:00:46.126Z,101630.59
2023-04-10T02:03:19.547Z,101631.79
2023-04-10T02:06:03.664Z,101628.45
2023-04-10T02:08:41.288Z,101626.63
2023-04-10T02:11:21.555Z,101624.88
2023-04-10T02:13:59.214Z,101625.20
2023-04-10T02:16:33.107Z,101625.89
2023-04-10T02:19:06.957Z,101624.42
2023-04-10T02:21:40.054Z,101624.63
2023-04-10T02:24:13.077Z,101627.27
2023-04-10T02:26:49.712Z,101615.45
2023-04-10T02:29:22.504Z,101628.19
2023-04-10T02:31:54.619Z,101629.77
2023-04-10T02:34:27.304Z,101623.17
2023-04-10T02:36:59.553Z,101631.13
2023-04-10T02:39:35.188Z,101629.17
2023-04-10T02:42:07.515Z,101632.71
2023-04-10T02:44:42.497Z,101630.62
2023-04-10T02:47:16.023Z,101630.11
2023-04-10T02:49:51.068Z,101627.70
2023-04-10T02:52:23.754Z,101619.58
2023-04-10T02:54:56.549Z,101613.95
2023-04-10T02:57:31.848Z,101630.52
2023-04-10T03:00:04.820Z,101630.34
2023-04-10T03:02:54.596Z,101633.14
2023-04-10T03:05:27.344Z,101630.70
2023-04-10T03:07:59.916Z,101634.45
2023-04-10T03:10:32.784Z,101631.38
2023-04-10T03:13:04.885Z,101630.64
2023-04-10T03:15:37.236Z,101636.97
2023-04-10T03:18:09.744Z,101635.44
2023-04-10T03:20:44.950Z,101624.48
2023-04-10T03:23:17.688Z,101605.41
2023-04-10T03:25:55.224Z,101637.82
2023-04-10T03:28:30.905Z,101634.17
2023-04-10T03:31:04.184Z,101638.41
2023-04-10T03:33:38.960Z,101635.70
2023-04-10T03:36:12.660Z,101635.13
2023-04-10T03:38:44.988Z,101636.45
2023-04-10T03:41:17.002Z,101635.84
2023-04-10T03:43:49.236Z,101640.09
2023-04-10T03:46:22.816Z,101636.37
2023-04-10T03:48:55.608Z,101633.50
2023-04-10T03:51:28.380Z,101636.66
2023-04-10T03:54:01.444Z,101640.12
2023-04-10T03:56:34.545Z,101639.55
2023-04-10T03:59:06.993Z,101636.26
2023-04-10T04:01:44.762Z,101635.42
2023-04-10T04:04:17.952Z,101635.77
2023-04-10T04:07:11.253Z,101632.94
2023-04-10T04:10:03.689Z,101635.96
2023-04-10T04:12:52.396Z,101639.56
2023-04-10T04:15:40.815Z,101644.88
2023-04-10T04:18:42.791Z,101644.13
2023-04-10T04:21:35.476Z,101644.29
2023-04-10T04:24:24.590Z,101638.72
2023-04-10T04:27:10.225Z,101643.05
2023-04-10T04:30:03.386Z,101644.02
2023-04-10T04:32:59.911Z,101649.96
2023-04-10T04:36:06.448Z,101646.98
2023-04-10T04:38:57.255Z,101649.77
2023-04-10T04:41:48.006Z,101647.05
2023-04-10T04:44:39.048Z,101647.95
2023-04-10T04:47:27.869Z,101651.90
2023-04-10T04:50:13.757Z,101652.02
2023-04-10T04:53:06.684Z,101659.16
2023-04-10T04:55:59.452Z,101662.88
2023-04-10T04:58:48.638Z,101667.91
2023-04-10T05:01:39.489Z,101672.89
2023-04-10T05:04:32.398Z,101678.42
2023-04-10T05:07:21.676Z,101677.27
2023-04-10T05:09:56.928Z,101681.46
2023-04-10T05:12:52.126Z,101679.70
2023-04-10T05:15:45.752Z,101682.90
2023-04-10T05:18:37.815Z,101679.89
2023-04-10T05:21:20.739Z,101675.31
2023-04-10T05:24:12.975Z,101693.70
2023-04-10T05:26:53.328Z,101691.70
2023-04-10T05:29:46.113Z,101694.69
2023-04-10T05:32:43.289Z,101701.73
2023-04-10T05:35:35.871Z,101702.50
2023-04-10T05:38:37.752Z,101703.42
2023-04-10T05:41:26.689Z,101696.77
2023-04-10T05:44:21.468Z,101711.29
2023-04-10T05:47:09.900Z,101712.86
2023-04-10T05:49:44.918Z,101714.16
2023-04-10T05:52:40.131Z,101720.42
2023-04-10T05:55:35.005Z,101717.52
2023-04-10T05:58:34.297Z,101716.13
2023-04-10T06:01:30.278Z,101713.23
2023-04-10T06:04:05.730Z,101709.02
2023-04-10T06:06:38.697Z,101708.77
2023-04-10T06:09:11.395Z,101711.08
2023-04-10T06:11:43.412Z,101711.36
2023-04-10T06:14:15.719Z,101710.70
2023-04-10T06:16:49.004Z,101713.25
2023-04-10T06:19:21.353Z,101709.40
2023-04-10T06:21:54.597Z,101714.47
2023-04-10T06:24:27.139Z,101713.56
2023-04-10T06:27:00.992Z,101711.70
2023-04-10T06:29:33.779Z,101709.17
2023-04-10T06:32:06.637Z,101704.95
2023-04-10T06:34:41.641Z,101706.32
2023-04-10T06:37:13.945Z,101700.82
2023-04-10T06:39:46.689Z,101700.93
2023-04-10T06:42:18.876Z,101704.77
2023-04-10T06:45:00.889Z,101702.96
2023-04-10T06:47:33.280Z,101699.58
2023-04-10T06:50:06.019Z,101701.05
2023-04-10T06:52:38.131Z,101706.31
2023-04-10T06:55:12.858Z,101707.88
2023-04-10T06:57:43.613Z,101711.23
2023-04-10T07:00:17.353Z,101700.84
2023-04-10T07:02:49.928Z,101705.45
2023-04-10T07:05:23.758Z,101707.54
2023-04-10T07:07:56.127Z,101709.20
2023-04-10T07:10:28.283Z,101711.13
2023-04-10T07:13:00.687Z,101715.44
2023-04-10T07:15:32.838Z,101714.50
2023-04-10T07:18:05.456Z,101714.89
2023-04-10T07:20:38.267Z,101705.80
2023-04-10T07:23:10.697Z,101713.95
2023-04-10T07:25:43.550Z,101717.19
2023-04-10T07:28:15.892Z,101718.43
2023-04-10T07:30:48.741Z,101716.65
2023-04-10T07:33:21.628Z,101714.20
2023-04-10T07:35:53.984Z,101709.98
2023-04-10T07:38:27.331Z,101710.05
2023-04-10T07:41:02.520Z,101711.73
2023-04-10T07:43:34.804Z,101710.61
2023-04-10T07:46:07.736Z,101703.58
2023-04-10T07:48:40.020Z,101707.57
2023-04-10T07:51:12.383Z,101701.60
2023-04-10T07:53:44.551Z,101703.30
2023-04-10T07:56:21.474Z,101703.64
2023-04-10T07:58:54.304Z,101704.94
2023-04-10T08:01:27.571Z,101704.32
2023-04-10T08:04:01.541Z,101708.48
2023-04-10T08:06:35.816Z,101702.42
2023-04-10T08:09:08.264Z,101701.73
2023-04-10T08:11:40.508Z,101700.71
2023-04-10T08:14:13.631Z,101698.88
2023-04-10T08:16:50.757Z,101696.80
2023-04-10T08:19:23.808Z,101685.75
2023-04-10T08:21:56.957Z,101694.45
2023-04-10T08:24:29.544Z,101698.02
2023-04-10T08:27:02.118Z,101694.15
2023-04-10T08:29:34.487Z,101689.83
2023-04-10T08:32:07.378Z,101688.73
2023-04-10T08:34:40.055Z,101688.27
2023-04-10T08:37:12.304Z,101686.80
2023-04-10T08:39:44.854Z,101689.58
2023-04-10T08:42:17.264Z,101692.50
2023-04-10T08:44:52.330Z,101694.86
2023-04-10T08:47:29.080Z,101696.11
2023-04-10T08:50:06.277Z,101695.62
2023-04-10T08:52:44.068Z,101695.78
2023-04-10T08:55:17.323Z,101688.27
2023-04-10T08:58:00.380Z,101690.19
2023-04-10T09:00:38.678Z,101688.78
2023-04-10T09:03:14.345Z,101674.22
2023-04-10T09:05:47.093Z,101681.60
2023-04-10T09:08:19.188Z,101669.21
2023-04-10T09:10:53.905Z,101671.57
2023-04-10T09:13:40.883Z,101672.98
2023-04-10T09:16:15.022Z,101666.80
2023-04-10T09:18:50.769Z,101668.32
2023-04-10T09:21:23.585Z,101671.70
2023-04-10T09:24:03.084Z,101669.52
2023-04-10T09:26:35.789Z,101668.52
2023-04-10T09:29:11.041Z,101654.43
2023-04-10T09:31:43.977Z,101662.21
2023-04-10T09:34:18.398Z,101664.26
2023-04-10T09:36:58.043Z,101662.40
2023-04-10T09:39:41.091Z,101658.39
2023-04-10T09:42:14.999Z,101657.45
2023-04-10T09:44:47.448Z,101644.56
2023-04-10T09:47:21.931Z,101654.40
2023-04-10T09:49:55.791Z,101649.63
2023-04-10T09:52:29.469Z,101639.50
2023-04-10T09:55:04.104Z,101648.03
2023-04-10T09:57:35.829Z,101644.70
2023-04-10T10:00:10.086Z,101628.67
2023-04-10T10:02:43.284Z,101634.88
2023-04-10T10:05:16.684Z,101630.66
2023-04-10T10:07:49.338Z,101619.06
2023-04-10T10:10:21.955Z,101620.98
2023-04-10T10:12:57.703Z,101614.41
2023-04-10T10:15:36.366Z,101602.56
2023-04-10T10:18:21.840Z,101613.48
2023-04-10T10:20:54.670Z,101609.14
2023-04-10T10:23:28.550Z,101606.71
2023-04-10T10:26:03.247Z,101608.48
2023-04-10T10:28:37.309Z,101606.01
2023-04-10T10:31:10.024Z,101604.02
2023-04-10T10:33:43.052Z,101597.27
2023-04-10T10:36:18.092Z,101593.41
2023-04-10T10:38:59.900Z,101593.02
2023-04-10T10:41:39.476Z,101587.42
2023-04-10T10:44:15.879Z,101584.96
2023-04-10T10:46:52.211Z,101585.44
2023-04-10T10:49:44.603Z,101580.02
2023-04-10T10:52:16.661Z,101579.00
2023-04-10T10:54:58.863Z,101578.93
2023-04-10T10:57:52.091Z,101579.04
2023-04-10T11:00:26.138Z,101575.29
2023-04-10T11:03:28.454Z,101577.24
2023-04-10T11:06:03.103Z,101573.94
2023-04-10T11:08:48.911Z,101573.61
2023-04-10T11:11:23.704Z,101572.03
2023-04-10T11:14:19.935Z,101568.33
2023-04-10T11:16:52.582Z,101560.19
2023-04-10T11:19:26.431Z,101557.15
2023-04-10T11:22:08.139Z,101548.05
2023-04-10T11:25:00.609Z,101558.14
2023-04-10T11:27:45.633Z,101555.11
2023-04-10T11:30:37.986Z,101552.98
2023-04-10T11:33:10.372Z,101552.95
2023-04-10T11:35:42.932Z,101551.23
2023-04-10T11:38:17.553Z,101542.41
2023-04-10T11:41:05.393Z,101534.38
2023-04-10T11:43:38.144Z,101538.64
2023-04-10T11:46:10.825Z,101535.69
2023-04-10T11:48:42.975Z,101533.66
2023-04-10T11:51:15.978Z,101533.11
2023-04-10T11:53:48.372Z,101531.18
2023-04-10T11:56:24.033Z,101531.17
2023-04-10T11:58:57.149Z,101527.11
2023-04-10T12:01:29.671Z,101531.16
2023-04-10T12:04:02.746Z,101523.13
2023-04-10T12:06:35.092Z,101516.51
2023-04-10T12:09:16.499Z,101513.95
2023-04-10T12:11:56.962Z,101509.05
2023-04-10T12:14:36.039Z,101506.86
2023-04-10T12:17:10.004Z,101500.01
2023-04-10T12:19:42.716Z,101500.05
2023-04-10T12:22:15.879Z,101493.66
2023-04-10T12:24:49.891Z,101485.42
2023-04-10T12:27:23.267Z,101484.23
2023-04-10T12:29:57.315Z,101479.48
2023-04-10T12:32:29.533Z,101481.60
2023-04-10T12:35:02.424Z,101475.61
2023-04-10T12:37:52.334Z,101474.36
2023-04-10T12:40:24.611Z,101472.56
2023-04-10T12:42:57.695Z,101473.19
2023-04-10T12:45:44.184Z,101469.15
2023-04-10T12:48:25.486Z,101466.83
2023-04-10T12:50:57.929Z,101462.79
2023-04-10T12:53:30.402Z,101460.49
2023-04-10T12:56:06.463Z,101456.00
2023-04-10T12:58:39.024Z,101454.91
2023-04-10T13:01:14.307Z,101450.39
2023-04-10T13:03:49.019Z,101448.14
2023-04-10T13:06:19.686Z,101442.76
2023-04-10T13:08:53.005Z,101438.44
2023-04-10T13:11:25.586Z,101438.58
2023-04-10T13:13:57.762Z,101437.36
2023-04-10T13:16:30.374Z,101433.27
2023-04-10T13:19:02.587Z,101416.19
2023-04-10T13:21:35.284Z,101421.20
2023-04-10T13:24:07.580Z,101421.42
2023-04-10T13:26:39.943Z,101415.70
2023-04-10T13:29:12.315Z,101411.69
2023-04-10T13:31:44.566Z,101406.39
2023-04-10T13:34:17.012Z,101403.48
2023-04-10T13:36:50.237Z,101398.89
2023-04-10T13:39:22.410Z,101400.98
2023-04-10T13:41:54.784Z,101398.25
2023-04-10T13:44:27.653Z,101380.30
2023-04-10T13:47:00.658Z,101374.91
2023-04-10T13:49:32.848Z,101382.54
2023-04-10T13:52:05.337Z,101378.12
2023-04-10T13:54:37.688Z,101370.54
2023-04-10T13:57:10.254Z,101354.52
2023-04-10T13:59:43.099Z,101351.60
2023-04-10T14:02:15.610Z,101347.98
2023-04-10T14:04:47.821Z,101350.94
2023-04-10T14:07:21.004Z,101345.04
2023-04-10T14:09:53.429Z,101341.91
2023-04-10T14:12:25.715Z,101342.41
2023-04-10T14:14:57.950Z,101337.71
2023-04-10T14:17:30.736Z,101335.79
2023-04-10T14:20:03.007Z,101329.00
2023-04-10T14:22:35.293Z,101329.47
2023-04-10T14:25:13.541Z,101319.65
2023-04-10T14:27:46.168Z,101321.94
2023-04-10T14:30:18.469Z,101313.25
2023-04-10T14:32:51.004Z,101313.67
2023-04-10T14:35:23.435Z,101311.00
2023-04-10T14:37:55.881Z,101310.28
2023-04-10T14:40:28.301Z,101303.75
2023-04-10T14:43:01.040Z,101302.05
2023-04-10T14:45:33.788Z,101299.32
2023-04-10T14:48:07.000Z,101296.27
2023-04-10T14:50:39.463Z,101288.00
2023-04-10T14:53:12.027Z,101286.25
2023-04-10T14:55:44.477Z,101280.08
2023-04-10T14:58:16.681Z,101275.80
2023-04-10T15:00:50.867Z,101275.57
2023-04-10T15:03:25.123Z,101274.20
2023-04-10T15:06:02.380Z,101276.64
2023-04-10T15:08:34.737Z,101273.65
2023-04-10T15:11:07.384Z,101271.65
2023-04-10T15:13:39.711Z,101267.55
2023-04-10T15:16:12.526Z,101264.50
2023-04-10T15:18:47.796Z,101264.71
2023-04-10T15:21:20.813Z,101263.10
2023-04-10T15:23:53.323Z,101258.19
2023-04-10T15:26:25.790Z,101259.15
2023-04-10T15:28:58.241Z,101254.40
2023-04-10T15:31:30.566Z,101252.62
2023-04-10T15:34:02.811Z,101240.79
2023-04-10T15:36:35.181Z,101237.79
2023-04-10T15:39:07.597Z,101244.64
2023-04-10T15:41:40.570Z,101238.13
2023-04-10T15:44:12.701Z,101233.42
2023-04-10T15:46:47.163Z,101234.77
2023-04-10T15:49:29.769Z,101227.83
2023-04-10T15:52:07.802Z,101216.52
2023-04-10T15:54:41.444Z,101217.52
2023-04-10T15:57:13.781Z,101214.93
2023-04-10T15:59:46.188Z,101208.17
2023-04-10T16:02:18.776Z,101205.05
2023-04-10T16:04:51.252Z,101204.00
2023-04-10T16:07:23.826Z,101201.90
2023-04-10T16:09:57.225Z,101196.60
2023-04-10T16:12:29.502Z,101190.71
2023-04-10T16:15:02.193Z,101187.59
2023-04-10T16:17:34.495Z,101183.82
2023-04-10T16:20:09.558Z,101176.48
2023-04-10T16:22:40.244Z,101186.21
2023-04-10T16:25:12.870Z,101179.45
2023-04-10T16:27:44.898Z,101179.30
2023-04-10T16:30:18.283Z,101173.52
2023-04-10T16:32:52.568Z,101171.91
2023-04-10T16:35:24.980Z,101173.85
2023-04-10T16:37:57.310Z,101170.32
2023-04-10T16:40:32.728Z,101165.33
2023-04-10T16:43:05.145Z,101164.34
2023-04-10T16:45:38.383Z,101163.07
2023-04-10T16:48:10.809Z,101164.48
2023-04-10T16:50:43.856Z,101156.36
2023-04-10T16:53:16.280Z,101149.77
2023-04-10T16:55:57.554Z,101149.63
2023-04-10T16:58:32.382Z,101139.73
2023-04-10T17:01:15.850Z,101134.18
2023-04-10T17:03:49.119Z,101132.73
2023-04-10T17:06:21.634Z,101133.30
2023-04-10T17:08:54.297Z,101119.70
2023-04-10T17:11:27.616Z,101132.66
2023-04-10T17:14:00.091Z,101133.36
2023-04-10T17:16:34.242Z,101133.20
2023-04-10T17:19:06.805Z,101132.27
2023-04-10T17:21:39.591Z,101117.44
2023-04-10T17:24:11.880Z,101128.58
2023-04-10T17:26:43.961Z,101128.29
2023-04-10T17:29:16.320Z,101128.58
2023-04-10T17:31:48.931Z,101126.81
2023-04-10T17:34:21.244Z,101123.36
2023-04-10T17:36:54.202Z,101121.12
2023-04-10T17:39:27.241Z,101116.54
2023-04-10T17:41:59.579Z,101115.95
2023-04-10T17:44:35.257Z,101117.68
2023-04-10T17:47:07.840Z,101111.96
2023-04-10T17:49:40.980Z,101110.04
2023-04-10T17:52:13.756Z,101108.83
2023-04-10T17:54:45.782Z,101102.77
2023-04-10T17:57:18.137Z,101101.30
2023-04-10T17:59:50.405Z,101087.73
2023-04-10T18:02:23.816Z,101095.73
2023-04-10T18:04:57.007Z,101094.34
2023-04-10T18:07:29.667Z,101092.48
2023-04-10T18:10:02.092Z,101092.11
2023-04-10T18:12:34.600Z,101093.42
2023-04-10T18:15:09.397Z,101093.75
2023-04-10T18:17:40.146Z,101096.73
2023-04-10T18:20:14.878Z,101093.39
2023-04-10T18:22:48.336Z,101093.55
2023-04-10T18:25:20.960Z,101088.65
2023-04-10T18:28:12.986Z,101087.80
2023-04-10T18:30:45.736Z,101086.96
2023-04-10T18:33:22.390Z,101087.19
2023-04-10T18:35:57.314Z,101082.27
2023-04-10T18:38:28.385Z,101077.00
2023-04-10T18:41:01.136Z,101053.17
2023-04-10T18:43:33.215Z,101070.36
2023-04-10T18:46:06.453Z,101066.40
2023-04-10T18:48:44.029Z,101062.86
2023-04-10T18:51:16.350Z,101055.17
2023-04-10T18:53:49.506Z,101052.46
2023-04-10T18:56:21.700Z,101051.63
2023-04-10T18:58:54.139Z,101048.52
2023-04-10T19:01:26.536Z,101051.92
2023-04-10T19:03:59.179Z,101049.59
2023-04-10T19:06:32.489Z,101051.67
2023-04-10T19:09:05.524Z,101046.91
2023-04-10T19:11:37.936Z,101038.10
2023-04-10T19:14:10.512Z,101046.09
2023-04-10T19:16:43.059Z,101047.62
2023-04-10T19:19:15.425Z,101046.60
2023-04-10T19:21:47.776Z,101045.86
2023-04-10T19:24:20.852Z,101040.12
2023-04-10T19:26:56.283Z,101043.95
2023-04-10T19:29:28.890Z,101021.65
2023-04-10T19:32:01.183Z,101034.52
2023-04-10T19:34:33.626Z,101037.52
2023-04-10T19:37:05.956Z,101024.20
2023-04-10T19:39:38.375Z,101034.68
2023-04-10T19:42:10.810Z,101033.27
2023-04-10T19:44:43.655Z,101035.89
2023-04-10T19:47:18.019Z,101032.89
2023-04-10T19:49:50.517Z,101031.27
2023-04-10T19:52:23.099Z,101029.73
2023-04-10T19:54:55.764Z,101026.52
2023-04-10T19:57:28.454Z,101025.61
2023-04-10T20:00:01.075Z,101021.29
2023-04-10T20:02:33.850Z,101012.42
2023-04-10T20:05:07.116Z,101019.46
2023-04-10T20:07:39.758Z,101017.92
2023-04-10T20:10:12.742Z,101013.33
2023-04-10T20:12:45.031Z,101008.92
2023-04-10T20:15:17.668Z,101004.09
2023-04-10T20:17:50.007Z,101000.45
2023-04-10T20:20:22.371Z,100997.48
2023-04-10T20:22:55.237Z,100986.52
2023-04-10T20:25:27.598Z,100978.70
2023-04-10T20:27:59.683Z,100990.77
2023-04-10T20:30:32.038Z,100986.69
2023-04-10T20:33:04.415Z,100980.50
2023-04-10T20:35:36.911Z,100979.61
2023-04-10T20:38:09.194Z,100969.02
2023-04-10T20:40:42.338Z,100969.75
2023-04-10T20:43:15.205Z,100966.53
2023-04-10T20:45:47.649Z,100963.05
2023-04-10T20:48:19.976Z,100959.85
2023-04-10T20:50:52.236Z,100943.00
2023-04-10T20:53:24.803Z,100955.69
2023-04-10T20:55:57.418Z,100950.54
2023-04-10T20:58:30.128Z,100946.71
2023-04-10T21:01:02.432Z,100941.39
2023-04-10T21:03:34.833Z,100936.91
2023-04-10T21:06:08.935Z,100934.61
2023-04-10T21:08:41.242Z,100930.78
2023-04-10T21:11:13.407Z,100930.30
2023-04-10T21:13:45.733Z,100929.96
2023-04-10T21:16:17.903Z,100916.19
2023-04-10T21:18:53.297Z,100928.73
2023-04-10T21:21:27.337Z,100919.20
2023-04-10T21:23:59.751Z,100909.70
2023-04-10T21:26:32.754Z,100912.94
2023-04-10T21:29:05.690Z,100903.42
2023-04-10T21:31:37.842Z,100900.50
2023-04-10T21:34:11.555Z,100897.54
2023-04-10T21:36:43.762Z,100890.38
2023-04-10T21:39:16.168Z,100886.15
2023-04-10T21:41:48.824Z,100878.46
2023-04-10T21:44:21.145Z,100876.45
2023-04-10T21:46:53.804Z,100870.80
2023-04-10T21:49:26.124Z,100870.92
2023-04-10T21:51:59.273Z,100867.44
2023-04-10T21:54:32.081Z,100861.88
2023-04-10T21:57:04.780Z,100865.02
2023-04-10T21:59:37.457Z,100862.27
2023-04-10T22:02:10.738Z,100860.11
2023-04-10T22:04:53.983Z,100840.80
2023-04-10T22:07:27.206Z,100852.38
2023-04-10T22:10:01.110Z,100849.50
2023-04-10T22:12:33.430Z,100847.22
2023-04-10T22:15:06.934Z,100843.02
2023-04-10T22:17:39.187Z,100837.52
2023-04-10T22:20:12.877Z,100822.48
2023-04-10T22:22:45.322Z,100831.27
2023-04-10T22:25:17.975Z,100831.98
2023-04-10T22:27:50.596Z,100830.02
2023-04-10T22:30:22.765Z,100828.85
2023-04-10T22:32:58.227Z,100823.13
2023-04-10T22:35:31.253Z,100817.92
2023-04-10T22:38:03.911Z,100817.54
2023-04-10T22:40:36.340Z,100816.31
2023-04-10T22:43:08.543Z,100811.56
2023-04-10T22:45:42.550Z,100807.66
2023-04-10T22:48:14.975Z,100811.45
2023-04-10T22:50:47.402Z,100810.84
2023-04-10T22:53:19.703Z,100808.79
2023-04-10T22:55:52.127Z,100801.96
2023-04-10T22:58:24.588Z,100802.02
2023-04-10T23:00:57.152Z,100798.33
2023-04-10T23:03:29.833Z,100797.23
2023-04-10T23:06:02.241Z,100788.31
2023-04-10T23:08:34.917Z,100784.50
2023-04-10T23:11:07.628Z,100781.83
2023-04-10T23:13:39.785Z,100778.48
2023-04-10T23:16:12.986Z,100774.80
2023-04-10T23:18:45.630Z,100764.46
2023-04-10T23:21:18.094Z,100757.40
2023-04-10T23:23:50.189Z,100724.53
2023-04-10T23:26:22.835Z,100745.61
2023-04-10T23:28:55.652Z,100741.08
2023-04-10T23:31:28.108Z,100738.46
2023-04-10T23:34:00.836Z,100731.93
2023-04-10T23:36:33.360Z,100729.80
2023-04-10T23:39:05.760Z,100719.84
2023-04-10T23:41:38.012Z,100720.48
2023-04-10T23:44:10.214Z,100715.38
2023-04-10T23:46:42.532Z,100704.23
2023-04-10T23:49:14.724Z,100698.33
2023-04-10T23:51:46.797Z,100696.05
2023-04-10T23:54:18.883Z,100694.09
2023-04-10T23:56:51.301Z,100692.64
2023-04-10T23:59:23.557Z,100689.72
